KNFL/NFL METAR and TAF weather

Enter ICAO airport designator
Station Type Date Time Source
KNFL METAR 2019/02/16 17:56 UTC NOAA

KNFL 161756Z 00000KT 10SM FEW050 BKN080 OVC100 02/M05 A2991 RMK AO2 SLP103 T00221050 10022 21022 51005


Station Type Date Time Source
KNFL Decoded METAR 2019/02/16 17:56 UTC NOAA

FALLON NAVAL AIR STATION, NV, United States (KNFL) 39-26N 118-41W 1199M
Feb 16, 2019 - 12:56 PM EST / 2019.02.16 1756 UTC
Wind: Calm:0
Visibility: 10 mile(s):0
Sky conditions: overcast
Temperature: 36.0 F (2.2 C)
Dew Point: 23.0 F (-5.0 C)
Relative Humidity: 58%
Pressure (altimeter): 29.91 in. Hg (1012 hPa)
Pressure tendency: 0.01 inches (0.5 hPa) higher than three hours ago
ob: KNFL 161756Z 00000KT 10SM FEW050 BKN080 OVC100 02/M05 A2991 RMK AO2 SLP103 T00221050 10022 21022 51005
cycle: 18

Station Type Date Time Source
KNFL TAF 2019/02/15 23:09 UTC NOAA

TAF TAF KNFL 1523/1623 24018G25KT 9999 VCSH SCT030 BKN100 OVC250 610509 520109 QNH2972INS
TEMPO 1523/1606 8000 -SHSN BKN030 OVC050
FM160800 19010G15KT 9999 VCSH SCT030 BKN050 OVC100 610509 500000 QNH2975INS
FM161000 20008KT 9999 VCSH BKN030 BKN050 OVC080 610009 QNH2978INS
TEMPO 1612/1616 6000 -SHSN BKN020 OVC030
FM161800 25015G20KT 9999 VCSH SCT030 BKN050 OVC100 QNH2971INS 610009 520109 LAST NO
AMDS AFT 1523 NEXT 1907 TM04/1613Z T06/1623Z FS30123


Example: see airport list